Aérodrome :
LOGIN :

S'inscrire | Disclaimer

   EN    FR    IT 

 










Légende :    VFR   VFR Marginal   IFR   IFR Intensif   IFR Très Intensif
Visi : 
Plafond : 
>= 8 km
>= 3000ft
5 à 8 km
1000 à 3000 ft
1500m à 5 km
500 à 1000 ft
800 à 1500m
200 à 500 ft
< 800m
< 200 ft
Symboles :   Orages  Brouillard  Fortes neiges  Fortes précipitations  Vent > 20 kt
SIGMETs :   Divers  Orages  Givrage  Turbulence  Onde Orograph.  Cendres Volcan.






- Altitude de l'aérodrome : 2835 ft
- Code IATA : ISE


LTFC - Suleyman Demirel

DERNIER METAR :
  • 251620Z VRB02KT CAVOK 03/M05 Q1027 RMK RWY23 29002KT

METARs EXPIRÉS :
  • 251550Z 23004KT 200V310 CAVOK 03/M05 Q1027
  • 251520Z 22004KT CAVOK 06/M06 Q1026 RMK RWY23 23003KT
  • 251450Z 24003KT CAVOK 08/M06 Q1026 RMK RWY23 24003KT
  • 251420Z VRB02KT CAVOK 09/M06 Q1027 RMK RWY23 24003KT
  • 251350Z 19003KT 150V220 CAVOK 09/M06 Q1027 RMK RWY23 18004KT

TAF TAF LTFC
Valide du 25 à 12h jusqu'au 26 à 12h UTC


251040Z 2512/2612 VRB02KT CAVOK



MET'MAP, la Météo Aéronautique d'un coup d'oeil ! - Copyright ORBIFLY Décembre 2007 - Disclaimer

ORBIFLY MET'MAP TEAM :

Programmation & Développement : Alexandra Zaïnal
Sur une idée originale de : Baudouin d'Aumeries
Assistance à la programmation : Marc-Olivier Méhu
Soutien technique & logistique : Manuel Goepfert

Contact : metmap@orbifly.com




SOURCES & CREDITS :

   NOAA